Time;durP1;ratioP1;P1;durP2;ratioP2;P2;SDS_P1;SDS_P2;PMS_P1;PMS_P2;Temp;Humidity;BMP_temperature;BMP_pressure;BME280_temperature;BME280_humidity;BME280_pressure;Samples;Min_cycle;Max_cycle;Signal;HPM_P1;HPM_P2
2021/11/08 00:00:21;;;;;;;7.43;3.97;;;10.40;99.90;;;;;;5091299;28;20235;-56
2021/11/08 00:02:49;;;;;;;6.33;4.13;;;10.20;99.90;;;;;;5091293;28;20212;-56
2021/11/08 00:05:16;;;;;;;5.93;3.90;;;10.00;99.90;;;;;;5090712;28;20321;-57
2021/11/08 00:07:46;;;;;;;7.23;4.70;;;9.90;99.90;;;;;;5091086;28;20211;-56
2021/11/08 00:10:13;;;;;;;5.73;3.87;;;9.70;99.90;;;;;;5090990;28;20206;-57
2021/11/08 00:12:39;;;;;;;7.83;4.53;;;9.60;99.90;;;;;;5090887;28;20682;-56
2021/11/08 00:15:09;;;;;;;6.87;4.20;;;9.50;99.90;;;;;;5090723;28;20235;-56
2021/11/08 00:17:48;;;;;;;9.20;4.20;;;9.40;99.90;;;;;;5090776;28;20208;-56
2021/11/08 00:20:22;;;;;;;6.10;4.13;;;9.30;99.90;;;;;;5091022;28;20223;-56
2021/11/08 00:22:49;;;;;;;8.00;4.27;;;9.40;99.90;;;;;;5090959;28;20293;-56
2021/11/08 00:25:16;;;;;;;5.77;3.97;;;9.40;99.90;;;;;;5090675;28;20318;-56
2021/11/08 00:27:43;;;;;;;8.30;4.63;;;9.50;99.90;;;;;;5090914;28;20204;-56
2021/11/08 00:30:12;;;;;;;6.53;4.17;;;9.50;99.90;;;;;;5092147;28;20287;-56
2021/11/08 00:32:39;;;;;;;8.23;4.87;;;9.60;99.90;;;;;;5095185;28;20287;-57
2021/11/08 00:35:06;;;;;;;8.77;4.60;;;9.60;99.90;;;;;;5094837;28;20318;-55
2021/11/08 00:37:34;;;;;;;7.63;4.77;;;9.50;99.90;;;;;;5094947;28;20208;-55
2021/11/08 00:40:01;;;;;;;7.07;4.70;;;9.50;99.90;;;;;;5094663;28;20220;-55
2021/11/08 00:42:29;;;;;;;8.07;3.90;;;9.60;99.90;;;;;;5094833;28;20235;-59
2021/11/08 00:44:56;;;;;;;9.97;4.93;;;9.60;99.90;;;;;;5094532;28;20207;-55
2021/11/08 00:47:23;;;;;;;7.17;4.07;;;9.70;99.90;;;;;;5094942;28;20204;-58
2021/11/08 00:49:52;;;;;;;7.20;4.43;;;9.80;99.90;;;;;;5094701;28;20570;-56
2021/11/08 00:52:19;;;;;;;9.20;4.70;;;9.90;99.90;;;;;;5095157;28;20208;-58
2021/11/08 00:54:47;;;;;;;5.37;3.97;;;9.90;99.90;;;;;;5094929;28;20208;-56
2021/11/08 00:57:18;;;;;;;6.13;4.40;;;9.90;99.90;;;;;;5094537;28;20213;-56
2021/11/08 00:59:45;;;;;;;6.40;4.17;;;9.90;99.90;;;;;;5094569;28;20224;-58
2021/11/08 01:02:12;;;;;;;8.00;4.63;;;10.00;99.90;;;;;;5094726;28;20212;-56
2021/11/08 01:04:41;;;;;;;7.70;4.13;;;10.00;99.90;;;;;;5094383;28;20204;-56
2021/11/08 01:07:09;;;;;;;7.00;4.50;;;10.00;99.90;;;;;;5094511;28;20360;-56
2021/11/08 01:09:36;;;;;;;10.20;4.60;;;10.10;99.90;;;;;;5094292;28;20632;-56
2021/11/08 01:12:05;;;;;;;7.83;4.10;;;10.10;99.90;;;;;;5094161;28;20582;-56
2021/11/08 01:14:32;;;;;;;7.20;4.10;;;10.20;99.90;;;;;;5094543;28;20663;-56
2021/11/08 01:16:59;;;;;;;8.10;4.40;;;10.20;99.90;;;;;;5094130;28;20711;-56
2021/11/08 01:19:30;;;;;;;7.60;4.37;;;10.10;99.90;;;;;;5093912;28;20687;-56
2021/11/08 01:22:05;;;;;;;7.10;4.83;;;10.00;99.90;;;;;;5094165;28;20215;-56
2021/11/08 01:24:33;;;;;;;8.43;4.90;;;10.00;99.90;;;;;;5094044;28;20696;-56
2021/11/08 01:27:00;;;;;;;8.33;5.00;;;9.90;99.90;;;;;;5094381;28;20612;-56
2021/11/08 01:29:31;;;;;;;8.60;4.67;;;9.80;99.90;;;;;;5093805;28;20782;-56
2021/11/08 01:32:00;;;;;;;6.30;4.53;;;9.60;99.90;;;;;;5094225;28;20235;-57
2021/11/08 01:34:27;;;;;;;9.13;4.40;;;9.50;99.90;;;;;;5093776;28;20200;-57
2021/11/08 01:36:55;;;;;;;6.93;4.50;;;9.30;99.90;;;;;;5094052;28;20239;-57
2021/11/08 01:39:30;;;;;;;7.97;4.80;;;9.20;99.90;;;;;;5093629;28;20216;-56
2021/11/08 01:41:57;;;;;;;6.63;5.00;;;9.00;99.90;;;;;;5093372;28;20290;-58
2021/11/08 01:44:24;;;;;;;6.50;4.90;;;8.90;99.90;;;;;;5093316;28;20204;-58
2021/11/08 01:46:52;;;;;;;10.63;5.60;;;8.80;99.90;;;;;;5093358;28;20279;-56
2021/11/08 01:49:19;;;;;;;6.30;4.63;;;8.70;99.90;;;;;;5093305;28;20204;-56
2021/11/08 01:51:46;;;;;;;9.00;4.90;;;8.70;99.90;;;;;;5093606;28;20204;-56
2021/11/08 01:54:12;;;;;;;6.07;4.40;;;8.60;99.90;;;;;;5093434;28;20208;-57
2021/11/08 01:56:40;;;;;;;10.53;5.00;;;8.50;99.90;;;;;;5093147;28;20587;-57
2021/11/08 01:59:07;;;;;;;7.80;5.20;;;8.40;99.90;;;;;;5093848;28;20208;-56
2021/11/08 02:01:35;;;;;;;8.83;5.17;;;8.40;99.90;;;;;;5093763;28;20230;-57
2021/11/08 02:04:03;;;;;;;7.77;5.13;;;8.30;99.90;;;;;;5093228;28;20743;-57
2021/11/08 02:06:29;;;;;;;8.17;4.63;;;8.30;99.90;;;;;;5093199;28;20239;-56
2021/11/08 02:08:56;;;;;;;8.43;4.90;;;8.30;99.90;;;;;;5093044;28;20208;-57
2021/11/08 02:11:23;;;;;;;9.73;5.10;;;8.30;99.90;;;;;;5093161;28;20223;-56
2021/11/08 02:13:53;;;;;;;8.57;5.30;;;8.40;99.90;;;;;;5092969;28;20200;-57
2021/11/08 02:16:20;;;;;;;9.00;5.60;;;8.40;99.90;;;;;;5093365;28;20232;-56
2021/11/08 02:18:47;;;;;;;10.97;5.23;;;8.40;99.90;;;;;;5093027;28;20204;-56
2021/11/08 02:21:16;;;;;;;9.70;4.97;;;8.40;99.90;;;;;;5093089;28;20331;-57
2021/11/08 02:23:45;;;;;;;8.90;4.73;;;8.50;99.90;;;;;;5092533;28;20682;-57
2021/11/08 02:26:15;;;;;;;7.03;4.87;;;8.50;99.90;;;;;;5092650;28;20224;-56
2021/11/08 02:28:44;;;;;;;6.33;4.80;;;8.60;99.90;;;;;;5092547;28;20215;-56
2021/11/08 02:31:13;;;;;;;10.60;5.10;;;8.70;99.90;;;;;;5092495;28;20273;-57
2021/11/08 02:33:40;;;;;;;6.67;5.17;;;8.70;99.90;;;;;;5092655;28;20223;-56
2021/11/08 02:36:08;;;;;;;8.63;4.50;;;8.80;99.90;;;;;;5092558;28;20232;-58
2021/11/08 02:38:40;;;;;;;9.60;5.23;;;8.90;99.90;;;;;;5092547;28;20327;-56
2021/11/08 02:41:07;;;;;;;8.87;5.40;;;8.90;99.90;;;;;;5092325;28;20219;-58
2021/11/08 02:43:35;;;;;;;9.57;5.57;;;8.90;99.90;;;;;;5092418;28;20254;-56
2021/11/08 02:46:06;;;;;;;11.17;5.20;;;9.00;99.90;;;;;;5092480;28;20224;-57
2021/11/08 02:48:34;;;;;;;10.27;5.13;;;9.00;99.90;;;;;;5093116;28;20250;-56
2021/11/08 02:51:08;;;;;;;6.77;5.10;;;9.10;99.90;;;;;;5092374;28;20253;-57
2021/11/08 02:53:38;;;;;;;8.70;5.37;;;9.20;99.90;;;;;;5091310;28;20199;-57
2021/11/08 02:56:06;;;;;;;7.83;5.10;;;9.30;99.90;;;;;;5092372;28;20224;-58
2021/11/08 02:58:33;;;;;;;8.77;5.00;;;9.30;99.90;;;;;;5092124;28;20296;-56
2021/11/08 03:01:00;;;;;;;7.90;5.00;;;9.30;99.90;;;;;;5092266;28;20319;-57
2021/11/08 03:03:34;;;;;;;7.43;5.10;;;9.20;99.90;;;;;;5092235;28;20222;-56
2021/11/08 03:06:05;;;;;;;9.63;4.90;;;9.20;99.90;;;;;;5092376;28;20596;-56
2021/11/08 03:08:32;;;;;;;7.93;5.20;;;9.20;99.90;;;;;;5091941;28;20254;-57
2021/11/08 03:11:00;;;;;;;9.27;5.17;;;9.20;99.90;;;;;;5092417;28;20207;-57
2021/11/08 03:13:27;;;;;;;8.60;5.63;;;9.20;99.90;;;;;;5091977;28;20663;-56
2021/11/08 03:16:00;;;;;;;8.63;5.00;;;9.20;99.90;;;;;;5092359;28;20259;-57
2021/11/08 03:18:31;;;;;;;10.93;5.40;;;9.30;99.90;;;;;;5092282;28;20216;-56
2021/11/08 03:20:58;;;;;;;12.20;5.70;;;9.30;99.90;;;;;;5092172;28;20216;-57
2021/11/08 03:23:26;;;;;;;9.17;4.70;;;9.30;99.90;;;;;;5092035;28;20204;-56
2021/11/08 03:26:01;;;;;;;7.87;4.80;;;9.30;99.90;;;;;;5092130;28;20220;-57
2021/11/08 03:28:29;;;;;;;10.90;4.87;;;9.20;99.90;;;;;;5091636;28;20203;-57
2021/11/08 03:30:57;;;;;;;10.53;4.83;;;9.20;99.90;;;;;;5091573;28;20208;-57
2021/11/08 03:33:25;;;;;;;10.33;4.80;;;9.20;99.90;;;;;;5091496;28;20204;-57
2021/11/08 03:35:53;;;;;;;7.43;4.60;;;9.20;99.90;;;;;;5091486;28;20282;-57
2021/11/08 03:38:21;;;;;;;10.30;5.10;;;9.20;99.90;;;;;;5091291;28;20672;-57
2021/11/08 03:40:48;;;;;;;11.97;5.37;;;9.20;99.90;;;;;;5091475;28;20590;-56
2021/11/08 03:43:20;;;;;;;8.70;5.50;;;9.20;99.90;;;;;;5091317;28;20211;-57
2021/11/08 03:45:50;;;;;;;9.50;5.20;;;9.20;99.90;;;;;;5091033;28;20736;-56
2021/11/08 03:48:19;;;;;;;9.97;5.83;;;9.20;99.90;;;;;;5091040;28;20261;-56
2021/11/08 03:50:48;;;;;;;11.10;6.03;;;9.20;99.90;;;;;;5091271;28;20207;-56
2021/11/08 03:53:15;;;;;;;8.77;6.23;;;9.20;99.90;;;;;;5091239;28;20238;-56
2021/11/08 03:55:43;;;;;;;11.53;6.90;;;9.20;99.90;;;;;;5090821;28;20236;-58
2021/11/08 03:58:10;;;;;;;27.03;20.43;;;9.20;99.90;;;;;;5091021;28;20204;-56
2021/11/08 04:00:37;;;;;;;15.70;10.30;;;9.10;99.90;;;;;;5091366;28;20216;-57
2021/11/08 04:03:06;;;;;;;11.10;7.10;;;9.20;99.90;;;;;;5091045;28;20679;-56
2021/11/08 04:05:35;;;;;;;12.07;7.47;;;9.00;99.90;;;;;;5090696;28;20224;-56
2021/11/08 04:08:04;;;;;;;11.20;7.83;;;8.90;99.90;;;;;;5090964;28;20200;-57
2021/11/08 04:10:31;;;;;;;13.63;7.60;;;8.70;99.90;;;;;;5091114;28;20695;-56
2021/11/08 04:13:04;;;;;;;17.03;7.60;;;8.60;99.90;;;;;;5091499;28;20257;-56
2021/11/08 04:15:36;;;;;;;11.37;6.90;;;8.50;99.90;;;;;;5091127;28;20244;-57
2021/11/08 04:18:06;;;;;;;10.50;7.17;;;8.40;99.90;;;;;;5090958;28;20205;-57
2021/11/08 04:20:34;;;;;;;11.10;6.87;;;8.50;99.90;;;;;;5090867;28;20581;-56
2021/11/08 04:23:01;;;;;;;12.03;7.23;;;8.50;99.90;;;;;;5090866;28;20203;-57
2021/11/08 04:25:28;;;;;;;11.50;7.00;;;8.60;99.90;;;;;;5090524;28;20234;-56
2021/11/08 04:27:56;;;;;;;9.83;6.53;;;8.60;99.90;;;;;;5090614;28;20214;-56
2021/11/08 04:30:25;;;;;;;8.53;5.63;;;8.60;99.90;;;;;;5090940;28;20277;-58
2021/11/08 04:33:04;;;;;;;11.10;6.33;;;8.60;99.90;;;;;;5090977;28;20200;-56
2021/11/08 04:35:44;;;;;;;9.67;6.43;;;8.60;99.90;;;;;;5090410;28;20292;-56
2021/11/08 04:38:18;;;;;;;10.43;5.77;;;8.50;99.90;;;;;;5090594;28;20211;-57
2021/11/08 04:40:49;;;;;;;9.20;5.97;;;8.40;99.90;;;;;;5090628;28;20200;-56
2021/11/08 04:43:30;;;;;;;10.00;5.77;;;8.40;99.90;;;;;;5090700;28;20204;-55
2021/11/08 04:46:31;;;;;;;11.07;5.83;;;8.20;99.90;;;;;;5090448;28;20224;-57
2021/11/08 04:49:04;;;;;;;9.40;5.87;;;8.10;99.90;;;;;;5090259;28;20607;-58
2021/11/08 04:51:40;;;;;;;11.37;6.10;;;8.00;99.90;;;;;;5090840;28;20223;-54
2021/11/08 04:54:13;;;;;;;14.73;10.23;;;7.90;99.90;;;;;;5090676;28;20212;-54
2021/11/08 05:21:39;;;;;;;11.87;6.67;;;8.20;99.90;;;;;;5094059;28;20604;-56
2021/11/08 05:29:56;;;;;;;9.87;6.50;;;8.60;99.90;;;;;;5093886;28;20313;-56
2021/11/08 05:32:24;;;;;;;13.03;6.80;;;8.70;99.90;;;;;;5093963;28;20219;-56
2021/11/08 05:34:52;;;;;;;13.73;7.00;;;8.70;99.90;;;;;;5093621;28;20200;-55
2021/11/08 05:37:19;;;;;;;12.10;7.07;;;8.70;99.90;;;;;;5094331;28;20222;-56
2021/11/08 05:39:49;;;;;;;16.70;8.23;;;8.70;99.90;;;;;;5093723;28;20231;-56
2021/11/08 05:42:17;;;;;;;9.40;6.70;;;8.80;99.90;;;;;;5093891;28;20228;-57
2021/11/08 05:44:44;;;;;;;11.00;7.37;;;8.70;99.90;;;;;;5093497;28;20222;-59
2021/11/08 05:47:11;;;;;;;11.63;7.40;;;8.70;99.90;;;;;;5093857;28;20693;-57
2021/11/08 05:49:38;;;;;;;10.37;8.30;;;8.70;99.90;;;;;;5093630;28;20204;-57
2021/11/08 05:52:06;;;;;;;9.13;6.60;;;8.70;99.90;;;;;;5093531;28;20664;-56
2021/11/08 05:54:34;;;;;;;10.33;6.47;;;8.70;99.90;;;;;;5093494;28;20265;-57
2021/11/08 05:57:20;;;;;;;9.70;6.37;;;8.80;99.90;;;;;;5093842;28;20252;-56
2021/11/08 06:00:08;;;;;;;12.27;6.53;;;8.90;99.90;;;;;;5093405;28;20208;-56
2021/11/08 06:49:46;;;;;;;12.40;7.70;;;9.30;99.90;;;;;;5049614;28;20827;-56
2021/11/08 06:52:14;;;;;;;12.30;7.30;;;9.30;99.90;;;;;;5082533;28;20664;-55
2021/11/08 06:54:43;;;;;;;13.73;8.70;;;9.40;99.90;;;;;;5092507;28;20204;-55
2021/11/08 06:57:13;;;;;;;10.33;7.23;;;9.40;99.90;;;;;;5092289;28;20699;-56
2021/11/08 06:59:41;;;;;;;20.13;10.27;;;9.50;99.90;;;;;;5092336;28;20579;-56
2021/11/08 07:02:09;;;;;;;20.10;10.07;;;9.70;99.90;;;;;;5092562;28;20220;-57
2021/11/08 07:04:37;;;;;;;11.07;7.50;;;9.70;99.90;;;;;;5092143;28;20204;-58
2021/11/08 07:07:06;;;;;;;13.23;7.73;;;9.70;99.90;;;;;;5092106;28;20230;-58
2021/11/08 07:09:32;;;;;;;13.10;7.87;;;9.70;99.90;;;;;;5092017;28;20578;-58
2021/11/08 07:11:59;;;;;;;11.17;7.20;;;9.70;99.90;;;;;;5092445;28;20196;-58
2021/11/08 07:14:26;;;;;;;15.20;7.53;;;9.70;99.90;;;;;;5091716;28;20641;-57
2021/11/08 07:16:53;;;;;;;13.50;7.70;;;9.80;99.90;;;;;;5092228;28;20633;-57
2021/11/08 07:19:21;;;;;;;14.23;7.43;;;9.90;99.90;;;;;;5091681;28;20696;-57
2021/11/08 07:21:48;;;;;;;14.27;7.83;;;10.10;99.90;;;;;;5091816;28;20228;-58
2021/11/08 07:24:16;;;;;;;14.90;7.60;;;10.10;99.90;;;;;;5091763;28;20270;-58
2021/11/08 07:26:44;;;;;;;14.00;7.93;;;10.20;99.90;;;;;;5091605;28;20277;-57
2021/11/08 07:29:13;;;;;;;18.37;8.33;;;10.30;99.90;;;;;;5091854;28;20216;-58
2021/11/08 07:31:40;;;;;;;13.70;7.67;;;10.30;99.90;;;;;;5091874;28;20205;-57
2021/11/08 07:34:07;;;;;;;14.17;6.83;;;10.50;99.90;;;;;;5091868;28;20209;-57
2021/11/08 07:36:36;;;;;;;13.27;6.63;;;10.60;99.90;;;;;;5101699;22;20715;-62
2021/11/08 07:39:04;;;;;;;11.80;7.20;;;10.80;99.90;;;;;;5070572;28;20215;-59
2021/11/08 07:41:31;;;;;;;14.10;6.50;;;10.90;99.90;;;;;;5071579;28;20888;-60
2021/11/08 07:43:58;;;;;;;12.70;6.80;;;11.00;99.90;;;;;;5071414;28;20209;-60
2021/11/08 07:46:24;;;;;;;35.80;22.30;;;10.90;99.90;;;;;;5070994;28;20715;-61
2021/11/08 07:48:52;;;;;;;15.20;7.67;;;10.80;99.90;;;;;;5071199;28;20211;-62
2021/11/08 07:51:20;;;;;;;13.70;6.93;;;10.80;99.90;;;;;;5071066;28;20204;-60
2021/11/08 07:53:49;;;;;;;11.13;6.57;;;10.70;99.90;;;;;;5070840;28;20213;-60
2021/11/08 07:56:16;;;;;;;17.33;7.37;;;10.70;99.90;;;;;;5070865;28;20564;-60
2021/11/08 07:58:43;;;;;;;16.90;7.80;;;10.60;99.90;;;;;;5069841;28;20438;-61
2021/11/08 08:01:10;;;;;;;13.77;7.27;;;10.50;99.90;;;;;;5071024;28;20212;-61
2021/11/08 08:03:37;;;;;;;16.20;7.73;;;10.30;99.90;;;;;;5070770;28;20232;-61
2021/11/08 08:06:05;;;;;;;13.37;6.90;;;10.30;99.90;;;;;;5071245;28;20511;-60
2021/11/08 08:08:33;;;;;;;16.90;7.90;;;10.20;99.90;;;;;;5071471;28;20250;-59
2021/11/08 08:11:03;;;;;;;15.93;8.37;;;10.30;99.90;;;;;;5071377;28;20208;-59
2021/11/08 08:13:30;;;;;;;17.07;7.50;;;10.40;99.90;;;;;;5070903;28;20668;-59
2021/11/08 08:16:00;;;;;;;13.43;7.27;;;10.70;99.90;;;;;;5071424;28;20225;-61
2021/11/08 08:18:27;;;;;;;23.27;12.43;;;10.70;99.90;;;;;;5071313;28;20211;-59
2021/11/08 08:20:54;;;;;;;17.03;7.10;;;10.60;99.90;;;;;;5071129;28;20213;-59
2021/11/08 08:23:20;;;;;;;12.70;7.17;;;10.30;99.90;;;;;;5070955;28;20228;-60
2021/11/08 08:25:47;;;;;;;14.53;7.23;;;10.20;99.90;;;;;;5070962;28;20228;-61
2021/11/08 08:28:15;;;;;;;13.53;6.70;;;10.00;99.90;;;;;;5071201;28;20205;-59
2021/11/08 08:30:42;;;;;;;13.53;7.47;;;9.80;99.90;;;;;;5070956;28;20216;-60
2021/11/08 08:33:09;;;;;;;16.23;6.70;;;9.70;99.90;;;;;;5070532;28;20695;-61
2021/11/08 08:35:40;;;;;;;13.20;6.50;;;9.60;99.90;;;;;;5070356;28;20233;-60
2021/11/08 08:38:08;;;;;;;17.03;7.30;;;9.50;99.90;;;;;;5071054;28;20205;-58
2021/11/08 08:40:34;;;;;;;18.17;7.40;;;9.50;99.90;;;;;;5070519;28;20209;-59
2021/11/08 08:43:01;;;;;;;14.00;6.93;;;9.30;99.90;;;;;;5070699;28;20252;-59
2021/11/08 08:45:29;;;;;;;19.33;7.23;;;9.20;99.90;;;;;;5070033;28;20220;-59
2021/11/08 08:47:56;;;;;;;11.37;6.80;;;9.30;99.90;;;;;;5070133;28;20683;-59
2021/11/08 08:50:23;;;;;;;16.53;5.97;;;9.30;99.90;;;;;;5070726;28;20212;-61
2021/11/08 08:52:50;;;;;;;12.87;6.20;;;9.40;99.90;;;;;;5074411;28;20668;-67
2021/11/08 08:55:17;;;;;;;19.47;7.03;;;9.20;99.90;;;;;;5074110;28;20629;-61
2021/11/08 08:57:44;;;;;;;15.33;6.00;;;9.10;99.90;;;;;;5074003;28;20212;-64
2021/11/08 09:00:14;;;;;;;12.77;5.13;;;9.40;99.90;;;;;;5074337;28;20205;-60
2021/11/08 09:02:42;;;;;;;14.53;4.57;;;9.50;99.90;;;;;;5074213;28;20626;-61
2021/11/08 09:05:11;;;;;;;12.07;5.20;;;10.00;99.90;;;;;;5073854;28;20204;-60
2021/11/08 09:07:38;;;;;;;12.63;4.73;;;10.50;99.90;;;;;;5074426;28;20329;-60
2021/11/08 09:10:06;;;;;;;15.10;5.47;;;10.80;99.90;;;;;;5074202;28;20208;-62
2021/11/08 09:12:33;;;;;;;11.40;5.67;;;11.10;99.90;;;;;;5074058;28;20197;-62
2021/11/08 09:14:59;;;;;;;13.63;5.17;;;11.40;99.90;;;;;;5073674;28;20201;-61
2021/11/08 09:17:26;;;;;;;15.30;5.37;;;11.60;99.90;;;;;;5073737;28;20299;-61
2021/11/08 09:19:54;;;;;;;10.83;5.60;;;11.80;99.90;;;;;;5073901;28;20201;-61
2021/11/08 09:22:21;;;;;;;13.37;5.53;;;11.90;99.90;;;;;;5073937;28;20232;-61
2021/11/08 09:24:48;;;;;;;14.40;5.60;;;11.70;99.90;;;;;;5073612;28;20231;-60
2021/11/08 09:27:15;;;;;;;11.30;5.53;;;11.40;99.90;;;;;;5073825;28;20229;-60
2021/11/08 09:29:42;;;;;;;11.30;5.93;;;11.00;99.90;;;;;;5073639;28;20608;-60
2021/11/08 09:32:09;;;;;;;13.87;5.93;;;10.90;99.90;;;;;;5074253;28;20236;-60
2021/11/08 09:34:40;;;;;;;13.63;5.50;;;10.90;99.90;;;;;;5073634;28;20615;-61
2021/11/08 09:37:13;;;;;;;12.70;5.87;;;10.90;99.90;;;;;;5073370;28;20290;-60
2021/11/08 09:39:40;;;;;;;14.87;5.10;;;11.00;99.90;;;;;;5073442;28;20227;-61
2021/11/08 09:42:10;;;;;;;13.70;4.93;;;11.20;99.90;;;;;;5073299;28;20270;-61
2021/11/08 09:44:37;;;;;;;11.60;5.47;;;11.30;99.90;;;;;;5073798;28;20205;-61
2021/11/08 09:47:04;;;;;;;11.73;5.90;;;11.50;99.90;;;;;;5073525;28;20225;-61
2021/11/08 09:49:33;;;;;;;18.63;5.60;;;11.70;99.90;;;;;;5073367;28;20209;-60
2021/11/08 09:52:00;;;;;;;14.20;5.77;;;11.60;99.90;;;;;;5073386;28;20209;-60
2021/11/08 09:54:29;;;;;;;18.37;9.53;;;11.50;99.90;;;;;;5073254;28;20247;-61
2021/11/08 09:56:59;;;;;;;13.73;5.97;;;11.30;99.90;;;;;;5073208;28;20711;-61
2021/11/08 09:59:27;;;;;;;10.80;5.93;;;11.40;99.90;;;;;;5073191;28;20205;-61
2021/11/08 10:01:55;;;;;;;12.50;5.73;;;11.50;99.90;;;;;;5072613;28;20385;-61
2021/11/08 10:04:22;;;;;;;12.40;5.50;;;11.20;99.90;;;;;;5073009;28;20212;-62
2021/11/08 10:06:50;;;;;;;11.80;5.73;;;10.90;99.90;;;;;;5073460;28;20224;-62
2021/11/08 10:09:19;;;;;;;10.03;4.97;;;11.00;99.90;;;;;;5072764;28;20212;-61
2021/11/08 10:11:49;;;;;;;14.63;4.93;;;11.00;99.90;;;;;;5072847;28;20209;-61
2021/11/08 10:14:17;;;;;;;14.33;5.03;;;11.10;99.90;;;;;;5072909;28;20262;-61
2021/11/08 10:16:46;;;;;;;13.63;5.20;;;11.20;99.90;;;;;;5072904;28;20603;-62
2021/11/08 10:19:21;;;;;;;10.47;4.40;;;11.30;99.90;;;;;;5072850;28;20576;-62
2021/11/08 10:21:50;;;;;;;12.00;4.53;;;11.50;99.90;;;;;;5072637;28;20262;-62
2021/11/08 10:24:19;;;;;;;13.70;4.47;;;11.80;99.90;;;;;;5072977;28;20264;-61
2021/11/08 10:26:49;;;;;;;15.93;4.67;;;11.90;99.90;;;;;;5072742;28;20225;-61
2021/11/08 10:29:18;;;;;;;12.13;3.93;;;11.70;99.90;;;;;;5072819;28;20212;-60
2021/11/08 10:31:48;;;;;;;15.70;4.47;;;11.80;99.90;;;;;;5073021;28;20554;-60
2021/11/08 10:34:16;;;;;;;14.13;4.10;;;11.70;99.90;;;;;;5072724;28;20204;-59
2021/11/08 10:36:43;;;;;;;11.93;3.73;;;11.70;99.90;;;;;;5072439;28;20236;-60
2021/11/08 10:39:11;;;;;;;12.13;5.03;;;11.70;99.90;;;;;;5072425;28;20205;-61
2021/11/08 10:41:40;;;;;;;10.20;4.40;;;11.60;99.90;;;;;;5072371;28;20204;-59
2021/11/08 10:44:12;;;;;;;11.27;4.03;;;11.50;99.90;;;;;;5072003;28;20294;-62
2021/11/08 10:46:42;;;;;;;9.97;3.57;;;11.80;99.90;;;;;;5072209;28;20229;-60
2021/11/08 10:49:12;;;;;;;11.10;4.03;;;12.30;99.90;;;;;;5071989;28;20212;-59
2021/11/08 10:51:41;;;;;;;12.43;3.67;;;12.70;99.90;;;;;;5072335;28;20201;-61
2021/11/08 10:54:10;;;;;;;14.90;3.90;;;12.80;99.90;;;;;;5072098;28;20213;-60
2021/11/08 10:56:40;;;;;;;11.77;4.40;;;12.90;99.90;;;;;;5072077;28;20770;-60
2021/11/08 10:59:14;;;;;;;13.77;4.70;;;13.10;99.90;;;;;;5071937;28;20342;-60
2021/11/08 11:01:44;;;;;;;14.93;4.07;;;13.40;99.90;;;;;;5072145;28;20441;-61
2021/11/08 11:04:11;;;;;;;14.50;4.20;;;13.70;99.90;;;;;;5071850;28;20256;-60
2021/11/08 11:06:41;;;;;;;9.63;4.23;;;14.00;99.90;;;;;;5071660;28;20225;-59
2021/11/08 11:09:14;;;;;;;10.60;3.43;;;14.30;99.90;;;;;;5071823;28;20208;-59
2021/11/08 11:11:41;;;;;;;13.13;4.10;;;14.50;99.90;;;;;;5071569;28;20209;-60
2021/11/08 11:14:10;;;;;;;14.17;4.67;;;14.60;99.90;;;;;;5070936;28;20255;-60
2021/11/08 11:16:40;;;;;;;11.63;4.30;;;14.50;99.90;;;;;;5071579;28;20225;-60
2021/11/08 11:19:09;;;;;;;10.47;4.10;;;14.40;99.90;;;;;;5071824;28;20203;-60
2021/11/08 11:21:37;;;;;;;8.43;3.90;;;14.40;99.90;;;;;;5071384;28;20602;-59
2021/11/08 11:24:05;;;;;;;11.43;4.10;;;14.10;99.90;;;;;;5071258;28;20319;-59
2021/11/08 11:26:36;;;;;;;12.70;3.80;;;14.00;99.90;;;;;;5071300;28;20736;-60
2021/11/08 11:29:05;;;;;;;12.17;3.73;;;14.00;99.90;;;;;;5071054;28;20749;-60
2021/11/08 11:31:39;;;;;;;10.67;3.97;;;14.00;99.90;;;;;;5071262;28;20295;-60
2021/11/08 11:34:13;;;;;;;14.37;4.57;;;14.10;99.90;;;;;;5071509;28;20675;-60
2021/11/08 11:36:40;;;;;;;14.50;3.83;;;13.90;99.90;;;;;;5071025;28;20233;-60
2021/11/08 11:39:10;;;;;;;14.83;4.03;;;13.80;99.90;;;;;;5071001;28;20244;-60
2021/11/08 11:41:40;;;;;;;16.17;4.23;;;13.80;99.90;;;;;;5071292;28;20212;-60
2021/11/08 11:44:09;;;;;;;13.10;3.97;;;13.70;99.90;;;;;;5071042;28;20228;-62
2021/11/08 11:46:40;;;;;;;12.93;3.73;;;13.70;99.90;;;;;;5071294;28;20571;-61
2021/11/08 11:49:08;;;;;;;14.17;4.13;;;13.70;99.90;;;;;;5070988;28;20208;-61
2021/11/08 11:51:37;;;;;;;12.60;3.43;;;13.30;99.90;;;;;;5070838;28;20680;-61
2021/11/08 11:54:06;;;;;;;9.97;3.63;;;12.90;99.90;;;;;;5070701;28;20254;-61
2021/11/08 11:56:35;;;;;;;13.03;3.97;;;12.80;99.90;;;;;;5071236;28;20273;-61
2021/11/08 11:59:02;;;;;;;10.53;4.13;;;12.90;99.90;;;;;;5071133;28;20625;-61
2021/11/08 12:01:31;;;;;;;15.27;4.30;;;12.80;99.90;;;;;;5071483;28;20262;-60
2021/11/08 12:03:59;;;;;;;12.70;3.80;;;13.00;99.90;;;;;;5070673;28;20286;-61
2021/11/08 12:06:28;;;;;;;12.00;4.30;;;13.30;99.90;;;;;;5070915;28;20704;-61
2021/11/08 12:08:56;;;;;;;14.83;4.50;;;13.40;99.90;;;;;;5071549;28;20592;-61
2021/11/08 12:11:32;;;;;;;11.17;3.80;;;13.30;99.90;;;;;;5071640;28;20216;-60
2021/11/08 12:14:01;;;;;;;15.67;3.90;;;13.30;99.90;;;;;;5071277;28;20208;-61
2021/11/08 12:16:29;;;;;;;13.77;4.00;;;13.40;99.90;;;;;;5071026;28;20232;-61
2021/11/08 12:18:59;;;;;;;9.67;3.70;;;13.30;99.90;;;;;;5070666;28;20220;-61
2021/11/08 12:21:28;;;;;;;13.60;4.03;;;13.00;99.90;;;;;;5070777;28;20228;-61
2021/11/08 12:23:57;;;;;;;11.30;5.43;;;12.80;99.90;;;;;;5070449;28;20700;-61
2021/11/08 12:26:25;;;;;;;14.47;5.30;;;12.70;99.90;;;;;;5076380;28;20719;-61
2021/11/08 12:28:52;;;;;;;11.67;4.30;;;12.80;99.90;;;;;;5077049;28;20642;-61
2021/11/08 12:31:22;;;;;;;14.07;4.50;;;13.00;99.90;;;;;;5077593;28;20204;-61
2021/11/08 12:34:01;;;;;;;11.57;3.83;;;13.10;99.90;;;;;;5077231;28;20201;-60
2021/11/08 12:36:28;;;;;;;12.67;3.50;;;13.00;99.90;;;;;;5077012;28;20913;-62
2021/11/08 12:38:59;;;;;;;8.47;3.47;;;12.70;99.90;;;;;;5077097;28;20204;-60
2021/11/08 12:41:33;;;;;;;12.30;4.57;;;12.50;99.90;;;;;;5077208;28;20304;-61
2021/11/08 12:44:04;;;;;;;9.67;3.40;;;12.40;99.90;;;;;;5077196;28;20224;-60
2021/11/08 12:46:36;;;;;;;11.23;4.83;;;12.50;99.90;;;;;;5077815;28;20224;-60
2021/11/08 12:49:12;;;;;;;8.60;3.43;;;12.60;99.90;;;;;;5077465;28;20209;-60
2021/11/08 12:51:39;;;;;;;13.37;3.60;;;12.60;99.90;;;;;;5077452;28;20244;-60
2021/11/08 12:54:09;;;;;;;12.03;3.17;;;12.60;99.90;;;;;;5077422;28;20227;-60
2021/11/08 12:56:43;;;;;;;6.90;3.07;;;12.60;99.90;;;;;;5077310;28;20221;-60
2021/11/08 12:59:18;;;;;;;10.00;3.00;;;12.40;99.90;;;;;;5077211;28;20213;-60
2021/11/08 13:01:48;;;;;;;9.63;3.10;;;12.30;99.90;;;;;;5076984;28;20230;-61
2021/11/08 13:04:17;;;;;;;11.73;3.57;;;12.20;99.90;;;;;;5076817;28;20235;-60
2021/11/08 13:06:45;;;;;;;10.63;3.57;;;12.40;99.90;;;;;;5076794;28;20713;-60
2021/11/08 13:09:18;;;;;;;7.37;2.90;;;12.60;99.90;;;;;;5076956;28;20212;-60
2021/11/08 13:11:48;;;;;;;13.03;4.00;;;12.60;99.90;;;;;;5077077;28;20204;-61
2021/11/08 13:14:26;;;;;;;10.40;3.30;;;12.70;99.90;;;;;;5076891;28;20201;-60
2021/11/08 13:17:06;;;;;;;8.03;2.83;;;12.70;99.90;;;;;;5076699;28;20638;-60
2021/11/08 13:19:40;;;;;;;8.20;2.70;;;13.00;99.90;;;;;;5076685;28;20211;-61
2021/11/08 13:22:15;;;;;;;7.43;2.47;;;13.10;99.90;;;;;;5076969;28;20205;-61
2021/11/08 13:24:42;;;;;;;6.10;2.47;;;13.10;99.90;;;;;;5076606;28;20650;-60
2021/11/08 13:27:10;;;;;;;7.37;2.60;;;13.00;99.90;;;;;;5076881;28;20254;-61
2021/11/08 13:29:38;;;;;;;8.33;2.60;;;13.10;99.90;;;;;;5077126;28;20205;-59
2021/11/08 13:32:14;;;;;;;10.13;2.70;;;13.10;99.90;;;;;;5077105;28;20208;-60
2021/11/08 13:34:43;;;;;;;7.80;3.17;;;13.40;99.90;;;;;;5076787;28;20412;-61
2021/11/08 13:37:10;;;;;;;8.63;2.83;;;13.50;99.90;;;;;;5074554;28;20290;-60
2021/11/08 13:39:37;;;;;;;7.10;2.17;;;13.60;99.90;;;;;;5073515;28;20208;-60
2021/11/08 13:42:04;;;;;;;5.40;2.40;;;13.70;99.90;;;;;;5073641;28;20208;-61
2021/11/08 13:44:30;;;;;;;9.47;2.30;;;13.80;99.90;;;;;;5073688;28;20233;-60
2021/11/08 13:46:57;;;;;;;9.30;2.43;;;13.70;99.90;;;;;;5073882;28;20650;-60
2021/11/08 13:49:26;;;;;;;7.97;2.10;;;13.60;99.90;;;;;;5073700;28;20204;-60
2021/11/08 13:51:57;;;;;;;7.27;2.40;;;13.50;99.90;;;;;;5073436;28;20208;-60
2021/11/08 13:54:27;;;;;;;11.07;3.30;;;13.30;99.90;;;;;;5072958;28;20205;-60
2021/11/08 13:56:56;;;;;;;7.70;2.60;;;13.10;99.90;;;;;;5073638;28;20319;-61
2021/11/08 13:59:25;;;;;;;5.43;2.10;;;13.00;99.90;;;;;;5073512;28;20213;-60
2021/11/08 14:01:55;;;;;;;7.43;2.53;;;12.90;99.90;;;;;;5073162;28;20236;-60
2021/11/08 14:04:31;;;;;;;6.67;2.43;;;12.80;99.90;;;;;;5072824;28;20216;-60
2021/11/08 14:07:00;;;;;;;13.10;3.13;;;12.70;99.90;;;;;;5072824;28;20225;-59
2021/11/08 14:09:28;;;;;;;10.17;3.33;;;12.70;99.90;;;;;;5072360;28;20259;-60
2021/11/08 14:11:56;;;;;;;6.50;2.80;;;12.80;99.90;;;;;;5073757;28;20255;-60